sensor_id;sensor_type;location;lat;lon;timestamp;P1;durP1;ratioP1;P2;durP2;ratioP2
5539;SDS011;2792;52.452;9.752;2023-04-25T00:01:31;10.33;;;4.50;;
5539;SDS011;2792;52.452;9.752;2023-04-25T00:03:58;10.23;;;4.77;;
5539;SDS011;2792;52.452;9.752;2023-04-25T00:06:25;10.63;;;4.90;;
5539;SDS011;2792;52.452;9.752;2023-04-25T00:08:52;7.43;;;4.63;;
5539;SDS011;2792;52.452;9.752;2023-04-25T00:11:19;10.00;;;4.83;;
5539;SDS011;2792;52.452;9.752;2023-04-25T00:13:45;11.53;;;5.03;;
5539;SDS011;2792;52.452;9.752;2023-04-25T00:16:14;6.00;;;4.57;;
5539;SDS011;2792;52.452;9.752;2023-04-25T00:18:42;8.80;;;3.83;;
5539;SDS011;2792;52.452;9.752;2023-04-25T00:21:08;7.60;;;4.40;;
5539;SDS011;2792;52.452;9.752;2023-04-25T00:23:35;9.47;;;4.67;;
5539;SDS011;2792;52.452;9.752;2023-04-25T00:26:02;9.10;;;4.50;;
5539;SDS011;2792;52.452;9.752;2023-04-25T00:28:29;13.83;;;4.73;;
5539;SDS011;2792;52.452;9.752;2023-04-25T00:30:55;12.10;;;4.47;;
5539;SDS011;2792;52.452;9.752;2023-04-25T00:33:22;9.30;;;5.00;;
5539;SDS011;2792;52.452;9.752;2023-04-25T00:35:49;18.27;;;4.60;;
5539;SDS011;2792;52.452;9.752;2023-04-25T00:38:16;10.67;;;4.70;;
5539;SDS011;2792;52.452;9.752;2023-04-25T00:40:42;9.00;;;5.00;;
5539;SDS011;2792;52.452;9.752;2023-04-25T00:43:10;12.63;;;5.47;;
5539;SDS011;2792;52.452;9.752;2023-04-25T00:45:38;7.77;;;4.20;;
5539;SDS011;2792;52.452;9.752;2023-04-25T00:48:05;10.00;;;4.57;;
5539;SDS011;2792;52.452;9.752;2023-04-25T00:50:32;8.40;;;5.00;;
5539;SDS011;2792;52.452;9.752;2023-04-25T00:53:00;12.67;;;5.20;;
5539;SDS011;2792;52.452;9.752;2023-04-25T00:55:28;11.30;;;4.60;;
5539;SDS011;2792;52.452;9.752;2023-04-25T00:57:56;19.47;;;5.43;;
5539;SDS011;2792;52.452;9.752;2023-04-25T01:00:23;10.33;;;4.50;;
5539;SDS011;2792;52.452;9.752;2023-04-25T01:02:49;11.13;;;5.33;;
5539;SDS011;2792;52.452;9.752;2023-04-25T01:05:16;13.43;;;4.93;;
5539;SDS011;2792;52.452;9.752;2023-04-25T01:07:43;13.23;;;5.37;;
5539;SDS011;2792;52.452;9.752;2023-04-25T01:10:11;7.60;;;4.60;;
5539;SDS011;2792;52.452;9.752;2023-04-25T01:12:38;8.17;;;4.87;;
5539;SDS011;2792;52.452;9.752;2023-04-25T01:15:05;9.27;;;4.97;;
5539;SDS011;2792;52.452;9.752;2023-04-25T01:17:32;12.33;;;5.50;;
5539;SDS011;2792;52.452;9.752;2023-04-25T01:20:00;9.63;;;4.97;;
5539;SDS011;2792;52.452;9.752;2023-04-25T01:22:30;10.93;;;5.37;;
5539;SDS011;2792;52.452;9.752;2023-04-25T01:24:57;10.10;;;4.80;;
5539;SDS011;2792;52.452;9.752;2023-04-25T01:27:24;12.73;;;4.50;;
5539;SDS011;2792;52.452;9.752;2023-04-25T01:29:51;10.00;;;5.53;;
5539;SDS011;2792;52.452;9.752;2023-04-25T01:32:18;12.60;;;5.17;;
5539;SDS011;2792;52.452;9.752;2023-04-25T01:34:45;10.57;;;5.13;;
5539;SDS011;2792;52.452;9.752;2023-04-25T01:37:12;9.53;;;5.70;;
5539;SDS011;2792;52.452;9.752;2023-04-25T01:39:39;15.07;;;4.90;;
5539;SDS011;2792;52.452;9.752;2023-04-25T01:42:06;10.00;;;5.03;;
5539;SDS011;2792;52.452;9.752;2023-04-25T01:44:33;10.57;;;5.20;;
5539;SDS011;2792;52.452;9.752;2023-04-25T01:46:59;13.83;;;5.33;;
5539;SDS011;2792;52.452;9.752;2023-04-25T01:49:26;11.97;;;5.57;;
5539;SDS011;2792;52.452;9.752;2023-04-25T01:51:52;15.00;;;5.43;;
5539;SDS011;2792;52.452;9.752;2023-04-25T01:54:19;10.83;;;6.07;;
5539;SDS011;2792;52.452;9.752;2023-04-25T01:56:51;11.67;;;5.20;;
5539;SDS011;2792;52.452;9.752;2023-04-25T01:59:18;8.00;;;5.30;;
5539;SDS011;2792;52.452;9.752;2023-04-25T02:01:45;13.93;;;6.10;;
5539;SDS011;2792;52.452;9.752;2023-04-25T02:04:11;9.37;;;5.63;;
5539;SDS011;2792;52.452;9.752;2023-04-25T02:06:38;11.13;;;5.83;;
5539;SDS011;2792;52.452;9.752;2023-04-25T02:09:04;15.97;;;6.50;;
5539;SDS011;2792;52.452;9.752;2023-04-25T02:11:31;13.57;;;5.67;;
5539;SDS011;2792;52.452;9.752;2023-04-25T02:13:59;14.53;;;5.60;;
5539;SDS011;2792;52.452;9.752;2023-04-25T02:16:25;10.17;;;5.93;;
5539;SDS011;2792;52.452;9.752;2023-04-25T02:18:52;10.17;;;5.50;;
5539;SDS011;2792;52.452;9.752;2023-04-25T02:21:19;8.70;;;4.63;;
5539;SDS011;2792;52.452;9.752;2023-04-25T02:23:45;11.40;;;5.13;;
5539;SDS011;2792;52.452;9.752;2023-04-25T02:26:13;11.93;;;5.60;;
5539;SDS011;2792;52.452;9.752;2023-04-25T02:28:40;13.27;;;4.97;;
5539;SDS011;2792;52.452;9.752;2023-04-25T02:31:08;10.67;;;4.70;;
5539;SDS011;2792;52.452;9.752;2023-04-25T02:33:34;16.53;;;4.33;;
5539;SDS011;2792;52.452;9.752;2023-04-25T02:36:01;10.90;;;4.70;;
5539;SDS011;2792;52.452;9.752;2023-04-25T02:38:28;7.20;;;3.60;;
5539;SDS011;2792;52.452;9.752;2023-04-25T02:40:55;10.80;;;4.73;;
5539;SDS011;2792;52.452;9.752;2023-04-25T02:43:21;18.30;;;4.40;;
5539;SDS011;2792;52.452;9.752;2023-04-25T02:45:47;11.33;;;3.70;;
5539;SDS011;2792;52.452;9.752;2023-04-25T02:48:15;11.80;;;3.70;;
5539;SDS011;2792;52.452;9.752;2023-04-25T02:50:42;10.53;;;3.67;;
5539;SDS011;2792;52.452;9.752;2023-04-25T02:53:08;10.03;;;4.50;;
5539;SDS011;2792;52.452;9.752;2023-04-25T02:55:35;18.90;;;4.23;;
5539;SDS011;2792;52.452;9.752;2023-04-25T02:58:02;15.13;;;3.97;;
5539;SDS011;2792;52.452;9.752;2023-04-25T03:00:29;8.93;;;3.93;;
5539;SDS011;2792;52.452;9.752;2023-04-25T03:02:55;12.03;;;4.13;;
5539;SDS011;2792;52.452;9.752;2023-04-25T03:05:23;16.77;;;4.97;;
5539;SDS011;2792;52.452;9.752;2023-04-25T03:07:50;13.23;;;3.90;;
5539;SDS011;2792;52.452;9.752;2023-04-25T03:10:16;15.20;;;4.53;;
5539;SDS011;2792;52.452;9.752;2023-04-25T03:12:43;20.27;;;4.47;;
5539;SDS011;2792;52.452;9.752;2023-04-25T03:15:09;12.77;;;4.40;;
5539;SDS011;2792;52.452;9.752;2023-04-25T03:17:36;14.27;;;3.70;;
5539;SDS011;2792;52.452;9.752;2023-04-25T03:20:03;13.83;;;3.97;;
5539;SDS011;2792;52.452;9.752;2023-04-25T03:22:31;13.60;;;3.67;;
5539;SDS011;2792;52.452;9.752;2023-04-25T03:24:58;16.50;;;5.23;;
5539;SDS011;2792;52.452;9.752;2023-04-25T03:27:24;15.73;;;4.33;;
5539;SDS011;2792;52.452;9.752;2023-04-25T03:29:51;18.20;;;4.90;;
5539;SDS011;2792;52.452;9.752;2023-04-25T03:32:17;10.40;;;3.27;;
5539;SDS011;2792;52.452;9.752;2023-04-25T03:34:44;23.90;;;4.77;;
5539;SDS011;2792;52.452;9.752;2023-04-25T03:37:11;17.00;;;4.20;;
5539;SDS011;2792;52.452;9.752;2023-04-25T03:39:38;7.27;;;3.33;;
5539;SDS011;2792;52.452;9.752;2023-04-25T03:42:05;17.07;;;4.20;;
5539;SDS011;2792;52.452;9.752;2023-04-25T03:44:31;11.10;;;4.03;;
5539;SDS011;2792;52.452;9.752;2023-04-25T03:46:58;13.23;;;3.40;;
5539;SDS011;2792;52.452;9.752;2023-04-25T03:49:24;10.70;;;3.40;;
5539;SDS011;2792;52.452;9.752;2023-04-25T03:51:51;11.33;;;4.43;;
5539;SDS011;2792;52.452;9.752;2023-04-25T03:54:17;7.73;;;3.60;;
5539;SDS011;2792;52.452;9.752;2023-04-25T03:56:45;11.90;;;4.50;;
5539;SDS011;2792;52.452;9.752;2023-04-25T03:59:13;13.77;;;4.87;;
5539;SDS011;2792;52.452;9.752;2023-04-25T04:01:40;12.80;;;3.60;;
5539;SDS011;2792;52.452;9.752;2023-04-25T04:04:06;13.80;;;4.50;;
5539;SDS011;2792;52.452;9.752;2023-04-25T04:06:33;16.03;;;3.60;;
5539;SDS011;2792;52.452;9.752;2023-04-25T04:08:59;17.03;;;4.70;;
5539;SDS011;2792;52.452;9.752;2023-04-25T04:11:26;11.70;;;4.30;;
5539;SDS011;2792;52.452;9.752;2023-04-25T04:13:53;18.63;;;4.63;;
5539;SDS011;2792;52.452;9.752;2023-04-25T04:16:20;14.50;;;3.93;;
5539;SDS011;2792;52.452;9.752;2023-04-25T04:18:46;18.53;;;4.10;;
5539;SDS011;2792;52.452;9.752;2023-04-25T04:21:13;17.30;;;4.20;;
5539;SDS011;2792;52.452;9.752;2023-04-25T04:23:39;21.50;;;5.10;;
5539;SDS011;2792;52.452;9.752;2023-04-25T04:26:06;14.30;;;3.30;;
5539;SDS011;2792;52.452;9.752;2023-04-25T04:28:33;13.17;;;3.33;;
5539;SDS011;2792;52.452;9.752;2023-04-25T04:31:02;16.00;;;4.40;;
5539;SDS011;2792;52.452;9.752;2023-04-25T04:33:28;21.83;;;4.83;;
5539;SDS011;2792;52.452;9.752;2023-04-25T04:35:55;10.27;;;4.20;;
5539;SDS011;2792;52.452;9.752;2023-04-25T04:38:22;15.93;;;4.03;;
5539;SDS011;2792;52.452;9.752;2023-04-25T04:40:49;15.33;;;3.90;;
5539;SDS011;2792;52.452;9.752;2023-04-25T04:43:15;15.50;;;4.30;;
5539;SDS011;2792;52.452;9.752;2023-04-25T04:45:42;15.30;;;4.47;;
5539;SDS011;2792;52.452;9.752;2023-04-25T04:48:10;21.83;;;4.97;;
5539;SDS011;2792;52.452;9.752;2023-04-25T04:50:39;14.23;;;5.50;;
5539;SDS011;2792;52.452;9.752;2023-04-25T04:53:06;20.83;;;4.50;;
5539;SDS011;2792;52.452;9.752;2023-04-25T04:55:33;13.87;;;4.20;;
5539;SDS011;2792;52.452;9.752;2023-04-25T04:57:59;19.53;;;4.10;;
5539;SDS011;2792;52.452;9.752;2023-04-25T05:00:26;9.73;;;3.60;;
5539;SDS011;2792;52.452;9.752;2023-04-25T05:02:54;16.20;;;5.17;;
5539;SDS011;2792;52.452;9.752;2023-04-25T05:05:22;25.53;;;4.73;;
5539;SDS011;2792;52.452;9.752;2023-04-25T05:07:48;16.60;;;3.90;;
5539;SDS011;2792;52.452;9.752;2023-04-25T05:10:15;16.63;;;5.07;;
5539;SDS011;2792;52.452;9.752;2023-04-25T05:12:42;20.23;;;4.13;;
5539;SDS011;2792;52.452;9.752;2023-04-25T05:15:09;16.23;;;4.77;;
5539;SDS011;2792;52.452;9.752;2023-04-25T05:17:36;15.60;;;4.80;;
5539;SDS011;2792;52.452;9.752;2023-04-25T05:20:03;7.60;;;3.70;;
5539;SDS011;2792;52.452;9.752;2023-04-25T05:22:33;10.93;;;4.50;;
5539;SDS011;2792;52.452;9.752;2023-04-25T05:24:59;16.40;;;4.83;;
5539;SDS011;2792;52.452;9.752;2023-04-25T05:27:26;14.17;;;4.07;;
5539;SDS011;2792;52.452;9.752;2023-04-25T05:29:52;16.47;;;4.10;;
5539;SDS011;2792;52.452;9.752;2023-04-25T05:32:19;15.40;;;3.97;;
5539;SDS011;2792;52.452;9.752;2023-04-25T05:34:45;11.00;;;3.57;;
5539;SDS011;2792;52.452;9.752;2023-04-25T05:37:12;14.73;;;3.40;;
5539;SDS011;2792;52.452;9.752;2023-04-25T05:39:39;17.13;;;3.40;;
5539;SDS011;2792;52.452;9.752;2023-04-25T05:42:06;18.33;;;3.20;;
5539;SDS011;2792;52.452;9.752;2023-04-25T05:44:32;13.23;;;3.60;;
5539;SDS011;2792;52.452;9.752;2023-04-25T05:46:59;16.00;;;3.40;;
5539;SDS011;2792;52.452;9.752;2023-04-25T05:49:25;12.87;;;3.87;;
5539;SDS011;2792;52.452;9.752;2023-04-25T05:51:52;23.10;;;3.10;;
5539;SDS011;2792;52.452;9.752;2023-04-25T05:54:18;15.03;;;3.60;;
5539;SDS011;2792;52.452;9.752;2023-04-25T05:56:46;10.90;;;3.57;;
5539;SDS011;2792;52.452;9.752;2023-04-25T05:59:13;12.57;;;3.20;;
5539;SDS011;2792;52.452;9.752;2023-04-25T06:01:39;11.93;;;3.63;;
5539;SDS011;2792;52.452;9.752;2023-04-25T06:04:06;7.77;;;3.47;;
5539;SDS011;2792;52.452;9.752;2023-04-25T06:06:32;11.70;;;2.90;;
5539;SDS011;2792;52.452;9.752;2023-04-25T06:08:59;12.93;;;3.00;;
5539;SDS011;2792;52.452;9.752;2023-04-25T06:11:25;14.97;;;4.00;;
5539;SDS011;2792;52.452;9.752;2023-04-25T06:13:53;11.43;;;2.60;;
5539;SDS011;2792;52.452;9.752;2023-04-25T06:16:20;10.00;;;3.00;;
5539;SDS011;2792;52.452;9.752;2023-04-25T06:18:46;9.23;;;3.57;;
5539;SDS011;2792;52.452;9.752;2023-04-25T06:21:13;8.77;;;3.07;;
5539;SDS011;2792;52.452;9.752;2023-04-25T06:23:39;7.90;;;2.50;;
5539;SDS011;2792;52.452;9.752;2023-04-25T06:26:06;11.70;;;3.50;;
5539;SDS011;2792;52.452;9.752;2023-04-25T06:28:32;13.30;;;3.17;;
5539;SDS011;2792;52.452;9.752;2023-04-25T06:31:00;8.60;;;2.47;;
5539;SDS011;2792;52.452;9.752;2023-04-25T06:33:27;13.17;;;3.00;;
5539;SDS011;2792;52.452;9.752;2023-04-25T06:35:53;8.33;;;2.60;;
5539;SDS011;2792;52.452;9.752;2023-04-25T06:38:20;11.53;;;2.43;;
5539;SDS011;2792;52.452;9.752;2023-04-25T06:40:46;13.90;;;3.93;;
5539;SDS011;2792;52.452;9.752;2023-04-25T06:43:13;16.93;;;4.10;;
5539;SDS011;2792;52.452;9.752;2023-04-25T06:45:39;13.17;;;3.37;;
5539;SDS011;2792;52.452;9.752;2023-04-25T06:48:08;11.53;;;3.00;;
5539;SDS011;2792;52.452;9.752;2023-04-25T06:50:35;11.23;;;2.60;;
5539;SDS011;2792;52.452;9.752;2023-04-25T06:53:01;10.07;;;2.80;;
5539;SDS011;2792;52.452;9.752;2023-04-25T06:55:28;8.50;;;2.80;;
5539;SDS011;2792;52.452;9.752;2023-04-25T06:57:55;13.87;;;3.50;;
5539;SDS011;2792;52.452;9.752;2023-04-25T07:00:21;8.50;;;2.53;;
5539;SDS011;2792;52.452;9.752;2023-04-25T07:02:48;8.87;;;2.27;;
5539;SDS011;2792;52.452;9.752;2023-04-25T07:05:16;6.87;;;2.97;;
5539;SDS011;2792;52.452;9.752;2023-04-25T07:07:43;11.93;;;3.20;;
5539;SDS011;2792;52.452;9.752;2023-04-25T07:10:09;8.80;;;3.03;;
5539;SDS011;2792;52.452;9.752;2023-04-25T07:12:36;15.73;;;2.90;;
5539;SDS011;2792;52.452;9.752;2023-04-25T07:15:03;7.83;;;2.27;;
5539;SDS011;2792;52.452;9.752;2023-04-25T07:17:31;13.37;;;2.97;;
5539;SDS011;2792;52.452;9.752;2023-04-25T07:19:58;12.33;;;3.10;;
5539;SDS011;2792;52.452;9.752;2023-04-25T07:22:26;14.27;;;2.80;;
5539;SDS011;2792;52.452;9.752;2023-04-25T07:24:53;13.67;;;2.80;;
5539;SDS011;2792;52.452;9.752;2023-04-25T07:27:19;9.67;;;2.93;;
5539;SDS011;2792;52.452;9.752;2023-04-25T07:29:46;10.37;;;3.37;;
5539;SDS011;2792;52.452;9.752;2023-04-25T07:32:12;9.97;;;2.73;;
5539;SDS011;2792;52.452;9.752;2023-04-25T07:34:39;10.97;;;2.93;;
5539;SDS011;2792;52.452;9.752;2023-04-25T07:37:06;7.90;;;2.80;;
5539;SDS011;2792;52.452;9.752;2023-04-25T07:39:34;8.43;;;3.57;;
5539;SDS011;2792;52.452;9.752;2023-04-25T07:42:02;12.80;;;3.00;;
5539;SDS011;2792;52.452;9.752;2023-04-25T07:44:28;11.07;;;2.57;;
5539;SDS011;2792;52.452;9.752;2023-04-25T07:46:55;9.87;;;2.43;;
5539;SDS011;2792;52.452;9.752;2023-04-25T07:49:22;8.47;;;1.97;;
5539;SDS011;2792;52.452;9.752;2023-04-25T07:51:49;13.43;;;2.73;;
5539;SDS011;2792;52.452;9.752;2023-04-25T07:54:16;17.20;;;2.67;;
5539;SDS011;2792;52.452;9.752;2023-04-25T07:56:44;5.30;;;2.10;;
5539;SDS011;2792;52.452;9.752;2023-04-25T07:59:11;10.87;;;2.53;;
5539;SDS011;2792;52.452;9.752;2023-04-25T08:01:37;3.60;;;2.00;;
5539;SDS011;2792;52.452;9.752;2023-04-25T08:04:04;5.97;;;2.40;;
5539;SDS011;2792;52.452;9.752;2023-04-25T08:06:30;8.37;;;2.77;;
5539;SDS011;2792;52.452;9.752;2023-04-25T08:08:57;6.37;;;2.13;;
5539;SDS011;2792;52.452;9.752;2023-04-25T08:11:24;12.03;;;2.13;;
5539;SDS011;2792;52.452;9.752;2023-04-25T08:13:52;8.57;;;2.53;;
5539;SDS011;2792;52.452;9.752;2023-04-25T08:16:18;11.47;;;2.47;;
5539;SDS011;2792;52.452;9.752;2023-04-25T08:18:45;6.23;;;2.60;;
5539;SDS011;2792;52.452;9.752;2023-04-25T08:21:11;9.10;;;2.50;;
5539;SDS011;2792;52.452;9.752;2023-04-25T08:23:38;4.13;;;1.97;;
5539;SDS011;2792;52.452;9.752;2023-04-25T08:26:05;5.73;;;2.20;;
5539;SDS011;2792;52.452;9.752;2023-04-25T08:28:31;5.87;;;2.30;;
5539;SDS011;2792;52.452;9.752;2023-04-25T08:30:59;8.10;;;2.60;;
5539;SDS011;2792;52.452;9.752;2023-04-25T08:33:26;4.33;;;1.83;;
5539;SDS011;2792;52.452;9.752;2023-04-25T08:35:52;8.13;;;2.73;;
5539;SDS011;2792;52.452;9.752;2023-04-25T08:38:19;4.93;;;1.93;;
5539;SDS011;2792;52.452;9.752;2023-04-25T08:40:46;7.30;;;2.30;;
5539;SDS011;2792;52.452;9.752;2023-04-25T08:43:16;6.83;;;2.20;;
5539;SDS011;2792;52.452;9.752;2023-04-25T08:45:45;5.93;;;1.87;;
5539;SDS011;2792;52.452;9.752;2023-04-25T08:48:14;8.23;;;2.13;;
5539;SDS011;2792;52.452;9.752;2023-04-25T08:50:46;5.53;;;1.70;;
5539;SDS011;2792;52.452;9.752;2023-04-25T08:53:17;7.77;;;2.00;;
5539;SDS011;2792;52.452;9.752;2023-04-25T08:55:45;6.73;;;2.20;;
5539;SDS011;2792;52.452;9.752;2023-04-25T08:58:12;4.90;;;1.90;;
5539;SDS011;2792;52.452;9.752;2023-04-25T09:00:39;6.10;;;1.83;;
5539;SDS011;2792;52.452;9.752;2023-04-25T09:03:05;7.80;;;1.60;;
5539;SDS011;2792;52.452;9.752;2023-04-25T09:05:33;7.40;;;2.77;;
5539;SDS011;2792;52.452;9.752;2023-04-25T09:08:00;6.57;;;1.90;;
5539;SDS011;2792;52.452;9.752;2023-04-25T09:10:27;8.13;;;2.40;;
5539;SDS011;2792;52.452;9.752;2023-04-25T09:13:03;8.27;;;2.70;;
5539;SDS011;2792;52.452;9.752;2023-04-25T09:15:31;5.00;;;1.67;;
5539;SDS011;2792;52.452;9.752;2023-04-25T09:17:57;7.20;;;1.90;;
5539;SDS011;2792;52.452;9.752;2023-04-25T09:20:24;5.07;;;1.73;;
5539;SDS011;2792;52.452;9.752;2023-04-25T09:23:02;3.07;;;1.97;;
5539;SDS011;2792;52.452;9.752;2023-04-25T09:25:33;3.50;;;1.80;;
5539;SDS011;2792;52.452;9.752;2023-04-25T09:28:03;8.73;;;1.63;;
5539;SDS011;2792;52.452;9.752;2023-04-25T09:30:30;7.30;;;2.07;;
5539;SDS011;2792;52.452;9.752;2023-04-25T09:32:57;5.90;;;1.57;;
5539;SDS011;2792;52.452;9.752;2023-04-25T09:35:23;5.20;;;2.00;;
5539;SDS011;2792;52.452;9.752;2023-04-25T09:37:51;3.33;;;1.70;;
5539;SDS011;2792;52.452;9.752;2023-04-25T09:40:19;6.83;;;1.47;;
5539;SDS011;2792;52.452;9.752;2023-04-25T09:42:45;4.67;;;1.60;;
5539;SDS011;2792;52.452;9.752;2023-04-25T09:45:12;7.07;;;1.73;;
5539;SDS011;2792;52.452;9.752;2023-04-25T09:47:40;4.23;;;1.10;;
5539;SDS011;2792;52.452;9.752;2023-04-25T09:50:13;3.90;;;1.50;;
5539;SDS011;2792;52.452;9.752;2023-04-25T09:52:40;3.00;;;1.87;;
5539;SDS011;2792;52.452;9.752;2023-04-25T09:55:07;4.10;;;1.50;;
5539;SDS011;2792;52.452;9.752;2023-04-25T09:57:35;7.03;;;1.73;;
5539;SDS011;2792;52.452;9.752;2023-04-25T10:00:05;5.30;;;2.10;;
5539;SDS011;2792;52.452;9.752;2023-04-25T10:02:37;6.10;;;1.50;;
5539;SDS011;2792;52.452;9.752;2023-04-25T10:05:05;2.80;;;1.53;;
5539;SDS011;2792;52.452;9.752;2023-04-25T10:07:32;9.43;;;1.70;;
5539;SDS011;2792;52.452;9.752;2023-04-25T10:10:00;3.70;;;1.37;;
5539;SDS011;2792;52.452;9.752;2023-04-25T10:12:28;5.97;;;1.53;;
5539;SDS011;2792;52.452;9.752;2023-04-25T10:14:57;8.93;;;1.93;;
5539;SDS011;2792;52.452;9.752;2023-04-25T10:17:24;5.47;;;1.87;;
5539;SDS011;2792;52.452;9.752;2023-04-25T10:19:52;9.03;;;2.27;;
5539;SDS011;2792;52.452;9.752;2023-04-25T10:22:26;3.77;;;1.70;;
5539;SDS011;2792;52.452;9.752;2023-04-25T10:24:56;4.80;;;1.90;;
5539;SDS011;2792;52.452;9.752;2023-04-25T10:27:23;3.60;;;1.43;;
5539;SDS011;2792;52.452;9.752;2023-04-25T10:30:01;3.50;;;1.30;;
5539;SDS011;2792;52.452;9.752;2023-04-25T10:32:30;3.73;;;1.70;;
5539;SDS011;2792;52.452;9.752;2023-04-25T10:34:56;4.07;;;2.10;;
5539;SDS011;2792;52.452;9.752;2023-04-25T10:37:23;3.67;;;2.07;;
5539;SDS011;2792;52.452;9.752;2023-04-25T10:39:50;11.50;;;1.80;;
5539;SDS011;2792;52.452;9.752;2023-04-25T10:42:18;3.30;;;1.73;;
5539;SDS011;2792;52.452;9.752;2023-04-25T10:45:00;5.00;;;1.93;;
5539;SDS011;2792;52.452;9.752;2023-04-25T10:47:34;6.43;;;2.20;;
5539;SDS011;2792;52.452;9.752;2023-04-25T10:50:04;13.33;;;1.80;;
5539;SDS011;2792;52.452;9.752;2023-04-25T10:52:32;5.53;;;1.53;;
5539;SDS011;2792;52.452;9.752;2023-04-25T10:54:59;4.20;;;1.80;;
5539;SDS011;2792;52.452;9.752;2023-04-25T10:57:30;4.90;;;1.57;;
5539;SDS011;2792;52.452;9.752;2023-04-25T10:59:59;3.03;;;1.27;;
5539;SDS011;2792;52.452;9.752;2023-04-25T11:02:31;2.97;;;1.20;;
5539;SDS011;2792;52.452;9.752;2023-04-25T11:04:58;2.30;;;1.33;;
5539;SDS011;2792;52.452;9.752;2023-04-25T11:07:28;2.43;;;1.20;;
5539;SDS011;2792;52.452;9.752;2023-04-25T11:09:58;3.20;;;1.30;;
5539;SDS011;2792;52.452;9.752;2023-04-25T11:12:29;4.77;;;1.27;;
5539;SDS011;2792;52.452;9.752;2023-04-25T11:14:58;3.97;;;1.50;;
5539;SDS011;2792;52.452;9.752;2023-04-25T11:17:26;4.53;;;1.30;;
5539;SDS011;2792;52.452;9.752;2023-04-25T11:19:54;2.23;;;1.20;;
5539;SDS011;2792;52.452;9.752;2023-04-25T11:22:21;4.60;;;1.33;;
5539;SDS011;2792;52.452;9.752;2023-04-25T11:24:48;3.07;;;1.40;;
5539;SDS011;2792;52.452;9.752;2023-04-25T11:27:15;2.50;;;1.10;;
5539;SDS011;2792;52.452;9.752;2023-04-25T11:29:42;6.13;;;1.93;;
5539;SDS011;2792;52.452;9.752;2023-04-25T11:32:08;6.67;;;1.40;;
5539;SDS011;2792;52.452;9.752;2023-04-25T11:34:35;5.17;;;1.20;;
5539;SDS011;2792;52.452;9.752;2023-04-25T11:37:03;1.50;;;1.20;;
5539;SDS011;2792;52.452;9.752;2023-04-25T11:39:30;1.60;;;1.00;;
5539;SDS011;2792;52.452;9.752;2023-04-25T11:41:57;3.27;;;1.00;;
5539;SDS011;2792;52.452;9.752;2023-04-25T11:44:24;3.60;;;1.40;;
5539;SDS011;2792;52.452;9.752;2023-04-25T11:46:50;7.43;;;1.80;;
5539;SDS011;2792;52.452;9.752;2023-04-25T11:49:17;3.30;;;1.30;;
5539;SDS011;2792;52.452;9.752;2023-04-25T11:51:44;3.07;;;1.77;;
5539;SDS011;2792;52.452;9.752;2023-04-25T11:54:13;5.83;;;1.40;;
5539;SDS011;2792;52.452;9.752;2023-04-25T11:56:41;5.33;;;1.87;;
5539;SDS011;2792;52.452;9.752;2023-04-25T11:59:08;3.40;;;1.50;;
5539;SDS011;2792;52.452;9.752;2023-04-25T12:01:36;2.90;;;1.40;;
5539;SDS011;2792;52.452;9.752;2023-04-25T12:04:12;5.83;;;1.83;;
5539;SDS011;2792;52.452;9.752;2023-04-25T12:06:40;7.10;;;1.60;;
5539;SDS011;2792;52.452;9.752;2023-04-25T12:09:08;2.03;;;1.10;;
5539;SDS011;2792;52.452;9.752;2023-04-25T12:11:41;2.30;;;0.80;;
5539;SDS011;2792;52.452;9.752;2023-04-25T12:14:08;2.70;;;1.13;;
5539;SDS011;2792;52.452;9.752;2023-04-25T12:16:41;2.07;;;1.00;;
5539;SDS011;2792;52.452;9.752;2023-04-25T12:19:08;2.73;;;1.17;;
5539;SDS011;2792;52.452;9.752;2023-04-25T12:21:35;2.70;;;1.20;;
5539;SDS011;2792;52.452;9.752;2023-04-25T12:24:11;3.33;;;1.20;;
5539;SDS011;2792;52.452;9.752;2023-04-25T12:26:50;4.60;;;1.60;;
5539;SDS011;2792;52.452;9.752;2023-04-25T12:29:18;2.30;;;1.10;;
5539;SDS011;2792;52.452;9.752;2023-04-25T12:31:46;1.37;;;1.10;;
5539;SDS011;2792;52.452;9.752;2023-04-25T12:34:13;3.20;;;1.10;;
5539;SDS011;2792;52.452;9.752;2023-04-25T12:36:40;3.37;;;1.20;;
5539;SDS011;2792;52.452;9.752;2023-04-25T12:39:07;2.57;;;1.00;;
5539;SDS011;2792;52.452;9.752;2023-04-25T12:41:34;3.57;;;1.27;;
5539;SDS011;2792;52.452;9.752;2023-04-25T12:44:02;2.30;;;0.90;;
5539;SDS011;2792;52.452;9.752;2023-04-25T12:46:28;3.73;;;1.00;;
5539;SDS011;2792;52.452;9.752;2023-04-25T12:48:55;3.43;;;1.00;;
5539;SDS011;2792;52.452;9.752;2023-04-25T12:51:22;2.80;;;1.00;;
5539;SDS011;2792;52.452;9.752;2023-04-25T12:53:50;2.67;;;1.10;;
5539;SDS011;2792;52.452;9.752;2023-04-25T12:56:17;5.87;;;1.37;;
5539;SDS011;2792;52.452;9.752;2023-04-25T12:58:43;1.57;;;1.00;;
5539;SDS011;2792;52.452;9.752;2023-04-25T13:01:11;2.20;;;1.00;;
5539;SDS011;2792;52.452;9.752;2023-04-25T13:03:38;3.10;;;1.27;;
5539;SDS011;2792;52.452;9.752;2023-04-25T13:06:05;0.90;;;0.80;;
5539;SDS011;2792;52.452;9.752;2023-04-25T13:08:32;1.00;;;0.80;;
5539;SDS011;2792;52.452;9.752;2023-04-25T13:10:59;2.27;;;0.70;;
5539;SDS011;2792;52.452;9.752;2023-04-25T13:13:26;3.70;;;0.90;;
5539;SDS011;2792;52.452;9.752;2023-04-25T13:15:53;1.50;;;1.30;;
5539;SDS011;2792;52.452;9.752;2023-04-25T13:18:21;4.17;;;1.93;;
5539;SDS011;2792;52.452;9.752;2023-04-25T13:20:51;2.70;;;1.20;;
5539;SDS011;2792;52.452;9.752;2023-04-25T13:23:17;1.47;;;1.10;;
5539;SDS011;2792;52.452;9.752;2023-04-25T13:25:45;3.13;;;1.20;;
5539;SDS011;2792;52.452;9.752;2023-04-25T13:28:11;8.23;;;1.80;;
5539;SDS011;2792;52.452;9.752;2023-04-25T13:30:38;3.13;;;2.13;;
5539;SDS011;2792;52.452;9.752;2023-04-25T13:33:04;2.10;;;1.03;;
5539;SDS011;2792;52.452;9.752;2023-04-25T13:35:33;4.80;;;1.50;;
5539;SDS011;2792;52.452;9.752;2023-04-25T13:38:00;3.27;;;1.63;;
5539;SDS011;2792;52.452;9.752;2023-04-25T13:40:27;2.43;;;1.83;;
5539;SDS011;2792;52.452;9.752;2023-04-25T13:42:54;2.50;;;1.17;;
5539;SDS011;2792;52.452;9.752;2023-04-25T13:45:21;6.43;;;1.47;;
5539;SDS011;2792;52.452;9.752;2023-04-25T13:47:48;4.67;;;1.63;;
5539;SDS011;2792;52.452;9.752;2023-04-25T13:50:15;3.77;;;2.00;;
5539;SDS011;2792;52.452;9.752;2023-04-25T13:52:43;6.60;;;1.33;;
5539;SDS011;2792;52.452;9.752;2023-04-25T13:55:10;4.30;;;1.17;;
5539;SDS011;2792;52.452;9.752;2023-04-25T13:57:36;4.03;;;1.50;;
5539;SDS011;2792;52.452;9.752;2023-04-25T14:00:04;2.20;;;1.20;;
5539;SDS011;2792;52.452;9.752;2023-04-25T14:02:33;1.97;;;1.40;;
5539;SDS011;2792;52.452;9.752;2023-04-25T14:05:00;2.30;;;1.00;;
5539;SDS011;2792;52.452;9.752;2023-04-25T14:07:27;1.70;;;1.10;;
5539;SDS011;2792;52.452;9.752;2023-04-25T14:09:55;1.73;;;1.07;;
5539;SDS011;2792;52.452;9.752;2023-04-25T14:12:22;1.27;;;1.17;;
5539;SDS011;2792;52.452;9.752;2023-04-25T14:14:48;1.93;;;1.37;;
5539;SDS011;2792;52.452;9.752;2023-04-25T14:17:15;2.53;;;1.47;;
5539;SDS011;2792;52.452;9.752;2023-04-25T14:19:41;3.00;;;1.40;;
5539;SDS011;2792;52.452;9.752;2023-04-25T14:22:10;2.40;;;1.30;;
5539;SDS011;2792;52.452;9.752;2023-04-25T14:24:37;3.83;;;1.30;;
5539;SDS011;2792;52.452;9.752;2023-04-25T14:27:05;1.83;;;1.40;;
5539;SDS011;2792;52.452;9.752;2023-04-25T14:29:31;5.30;;;1.30;;
5539;SDS011;2792;52.452;9.752;2023-04-25T14:31:58;1.60;;;1.40;;
5539;SDS011;2792;52.452;9.752;2023-04-25T14:34:25;3.43;;;1.20;;
5539;SDS011;2792;52.452;9.752;2023-04-25T14:36:51;3.07;;;1.37;;
5539;SDS011;2792;52.452;9.752;2023-04-25T14:39:18;1.90;;;1.50;;
5539;SDS011;2792;52.452;9.752;2023-04-25T14:41:45;2.60;;;1.30;;
5539;SDS011;2792;52.452;9.752;2023-04-25T14:44:13;5.70;;;1.33;;
5539;SDS011;2792;52.452;9.752;2023-04-25T14:46:40;4.20;;;1.83;;
5539;SDS011;2792;52.452;9.752;2023-04-25T14:49:06;2.90;;;1.13;;
5539;SDS011;2792;52.452;9.752;2023-04-25T14:51:33;4.00;;;1.57;;
5539;SDS011;2792;52.452;9.752;2023-04-25T14:53:59;3.57;;;1.47;;
5539;SDS011;2792;52.452;9.752;2023-04-25T14:56:26;4.60;;;1.90;;
5539;SDS011;2792;52.452;9.752;2023-04-25T14:58:53;2.40;;;1.27;;
5539;SDS011;2792;52.452;9.752;2023-04-25T15:01:21;4.50;;;1.50;;
5539;SDS011;2792;52.452;9.752;2023-04-25T15:03:47;4.60;;;1.30;;
5539;SDS011;2792;52.452;9.752;2023-04-25T15:06:14;3.40;;;1.63;;
5539;SDS011;2792;52.452;9.752;2023-04-25T15:08:41;4.47;;;1.80;;
5539;SDS011;2792;52.452;9.752;2023-04-25T15:11:07;4.60;;;1.50;;